createdAt,value
2022-08-05T00:01:27.987Z,7.78
2022-08-05T00:03:56.789Z,7.38
2022-08-05T00:06:32.470Z,8.77
2022-08-05T00:09:00.711Z,6.68
2022-08-05T00:11:34.445Z,8.15
2022-08-05T00:14:12.981Z,6.70
2022-08-05T00:16:52.347Z,6.13
2022-08-05T00:19:22.211Z,6.28
2022-08-05T00:21:49.629Z,7.20
2022-08-05T00:24:19.254Z,9.77
2022-08-05T00:26:52.973Z,8.20
2022-08-05T00:29:22.646Z,6.57
2022-08-05T00:32:10.483Z,8.57
2022-08-05T00:35:05.263Z,10.30
2022-08-05T00:37:51.414Z,8.70
2022-08-05T00:40:27.345Z,8.95
2022-08-05T00:42:59.784Z,8.50
2022-08-05T00:45:38.066Z,10.02
2022-08-05T00:48:07.575Z,9.90
2022-08-05T00:50:35.014Z,8.65
2022-08-05T00:53:02.819Z,7.78
2022-08-05T00:55:42.601Z,11.27
2022-08-05T00:58:12.113Z,9.57
2022-08-05T01:00:40.979Z,10.88
2022-08-05T01:03:10.421Z,8.15
2022-08-05T01:05:49.386Z,8.07
2022-08-05T01:08:42.110Z,9.55
2022-08-05T01:11:14.301Z,9.27
2022-08-05T01:14:17.976Z,7.80
2022-08-05T01:17:03.287Z,10.30
2022-08-05T01:20:00.674Z,10.70
2022-08-05T01:22:43.186Z,10.10
2022-08-05T01:25:53.408Z,8.10
2022-08-05T01:28:26.646Z,9.18
2022-08-05T01:31:12.705Z,8.80
2022-08-05T01:33:49.133Z,12.70
2022-08-05T01:36:21.051Z,9.15
2022-08-05T01:38:56.693Z,9.80
2022-08-05T01:41:30.023Z,21.42
2022-08-05T01:44:01.009Z,13.48
2022-08-05T01:46:42.352Z,11.10
2022-08-05T01:49:24.324Z,10.70
2022-08-05T01:51:58.262Z,11.63
2022-08-05T01:54:46.282Z,10.18
2022-08-05T01:58:12.249Z,11.98
2022-08-05T02:00:05.680Z,13.18
2022-08-05T02:05:24.814Z,12.23
2022-08-05T02:08:01.019Z,15.45
2022-08-05T02:10:35.286Z,15.30
2022-08-05T02:13:27.926Z,17.35
2022-08-05T02:16:16.386Z,16.08
2022-08-05T02:18:50.469Z,14.15
2022-08-05T02:21:21.950Z,16.60
2022-08-05T02:23:53.443Z,18.52
2022-08-05T02:26:26.511Z,17.60
2022-08-05T02:28:56.156Z,17.60
2022-08-05T02:31:34.893Z,15.20
2022-08-05T02:34:06.711Z,18.05
2022-08-05T02:36:41.723Z,21.77
2022-08-05T02:39:12.651Z,20.98
2022-08-05T02:41:57.549Z,20.90
2022-08-05T02:44:30.085Z,19.15
2022-08-05T02:47:00.746Z,20.27
2022-08-05T02:49:35.945Z,19.77
2022-08-05T02:52:09.387Z,20.98
2022-08-05T02:54:41.276Z,23.98
2022-08-05T02:58:11.989Z,13.68
2022-08-05T03:00:01.233Z,13.05
2022-08-05T03:02:36.709Z,13.00
2022-08-05T03:05:05.080Z,12.55
2022-08-05T03:08:00.102Z,20.13
2022-08-05T03:10:22.073Z,15.68
2022-08-05T03:12:53.503Z,18.45
2022-08-05T03:15:21.343Z,15.30
2022-08-05T03:17:54.180Z,17.20
2022-08-05T03:20:24.292Z,17.77
2022-08-05T03:22:53.073Z,19.40
2022-08-05T03:25:33.175Z,14.40
2022-08-05T03:28:11.619Z,15.38
2022-08-05T03:30:42.420Z,16.27
2022-08-05T03:33:09.761Z,18.65
2022-08-05T03:35:41.188Z,16.98
2022-08-05T03:38:12.186Z,16.80
2022-08-05T03:40:48.613Z,23.73
2022-08-05T03:44:09.663Z,19.83
2022-08-05T03:46:04.982Z,18.58
2022-08-05T03:48:35.625Z,20.00
2022-08-05T03:52:38.506Z,17.45
2022-08-05T03:56:01.577Z,21.80
2022-08-05T03:57:16.122Z,17.98
2022-08-05T03:59:54.698Z,21.63
2022-08-05T04:02:37.396Z,15.48
2022-08-05T04:05:09.724Z,20.40
2022-08-05T04:07:53.047Z,18.42
2022-08-05T04:10:27.960Z,15.63
2022-08-05T04:12:58.988Z,17.40
2022-08-05T04:15:27.923Z,16.00
2022-08-05T04:18:03.785Z,22.15
2022-08-05T04:20:34.103Z,14.32
2022-08-05T04:23:01.099Z,19.50
2022-08-05T04:25:57.404Z,16.60
2022-08-05T04:28:15.206Z,15.55
2022-08-05T04:30:44.771Z,15.57
2022-08-05T04:33:12.897Z,14.05
2022-08-05T04:36:10.689Z,12.13
2022-08-05T04:38:39.506Z,13.55
2022-08-05T04:41:09.363Z,11.93
2022-08-05T04:43:40.564Z,9.38
2022-08-05T04:46:13.726Z,11.55
2022-08-05T04:48:54.935Z,10.55
2022-08-05T04:51:21.814Z,9.90
2022-08-05T04:53:50.009Z,9.82
2022-08-05T04:56:33.593Z,12.38
2022-08-05T04:59:21.964Z,9.05
2022-08-05T05:02:07.058Z,7.53
2022-08-05T05:04:38.114Z,10.73
2022-08-05T05:07:05.436Z,9.80
2022-08-05T05:09:37.240Z,10.52
2022-08-05T05:12:06.311Z,9.95
2022-08-05T05:14:36.299Z,8.52
2022-08-05T05:17:03.740Z,9.70
2022-08-05T05:19:36.891Z,10.27
2022-08-05T05:22:24.320Z,8.93
2022-08-05T05:24:59.909Z,10.18
2022-08-05T05:27:45.867Z,8.50
2022-08-05T05:30:30.914Z,10.43
2022-08-05T05:33:08.871Z,11.43
2022-08-05T05:35:48.121Z,8.20
2022-08-05T05:38:26.875Z,11.25
2022-08-05T05:40:57.779Z,9.50
2022-08-05T05:43:54.266Z,10.10
2022-08-05T05:46:16.013Z,9.23
2022-08-05T05:48:46.034Z,12.85
2022-08-05T05:51:22.562Z,10.82
2022-08-05T05:53:57.977Z,9.73
2022-08-05T05:56:32.937Z,12.85
2022-08-05T05:59:08.213Z,13.95
2022-08-05T06:01:57.400Z,11.18
2022-08-05T06:04:25.116Z,11.68
2022-08-05T06:06:52.131Z,13.23
2022-08-05T06:09:25.944Z,15.57
2022-08-05T06:12:06.377Z,12.68
2022-08-05T06:14:36.506Z,14.43
2022-08-05T06:17:22.672Z,16.05
2022-08-05T06:19:56.896Z,11.45
2022-08-05T06:24:55.005Z,8.20
2022-08-05T06:28:12.352Z,9.52
2022-08-05T06:30:17.809Z,9.02
2022-08-05T06:32:48.299Z,8.80
2022-08-05T06:36:02.870Z,10.05
2022-08-05T06:38:11.345Z,7.60
2022-08-05T06:40:42.103Z,9.57
2022-08-05T06:43:57.713Z,8.05
2022-08-05T06:46:07.025Z,9.32
2022-08-05T06:48:54.558Z,8.45
2022-08-05T06:51:29.507Z,10.30
2022-08-05T06:54:04.141Z,6.07
2022-08-05T06:56:33.890Z,6.93
2022-08-05T06:59:01.836Z,8.90
2022-08-05T07:01:32.465Z,10.52
2022-08-05T07:04:02.494Z,5.82
2022-08-05T07:06:30.138Z,7.55
2022-08-05T07:08:59.110Z,7.70
2022-08-05T07:11:28.769Z,6.85
2022-08-05T07:14:20.586Z,10.13
2022-08-05T07:18:00.226Z,6.22
2022-08-05T07:22:35.832Z,6.90
2022-08-05T07:25:21.828Z,7.63
2022-08-05T07:27:58.635Z,7.80
2022-08-05T07:30:39.691Z,6.43
2022-08-05T07:33:10.639Z,5.63
2022-08-05T07:36:03.319Z,6.22
2022-08-05T07:38:34.078Z,6.40
2022-08-05T07:41:35.007Z,7.07
2022-08-05T07:43:56.635Z,6.50
2022-08-05T07:46:26.214Z,6.70
2022-08-05T07:49:02.216Z,5.68
2022-08-05T07:51:40.333Z,6.68
2022-08-05T07:54:16.190Z,7.25
2022-08-05T07:57:02.007Z,8.88
2022-08-05T07:59:40.527Z,6.22
2022-08-05T08:02:15.634Z,6.82
2022-08-05T08:04:45.991Z,5.50
2022-08-05T08:07:13.721Z,5.15
2022-08-05T08:09:40.822Z,5.05
2022-08-05T08:12:35.674Z,5.65
2022-08-05T08:14:55.073Z,5.15
2022-08-05T08:17:22.245Z,7.63
2022-08-05T08:20:22.498Z,5.57
2022-08-05T08:22:37.867Z,4.63
2022-08-05T08:25:16.155Z,5.43
2022-08-05T08:27:47.460Z,5.90
2022-08-05T08:30:29.879Z,5.15
2022-08-05T08:33:08.570Z,7.18
2022-08-05T08:35:41.431Z,6.20
2022-08-05T08:38:35.273Z,5.70
2022-08-05T08:41:10.733Z,5.15
2022-08-05T08:45:17.167Z,5.40
2022-08-05T08:46:31.179Z,5.85
2022-08-05T08:49:17.471Z,5.85
2022-08-05T08:52:03.433Z,7.28
2022-08-05T08:54:36.403Z,7.00
2022-08-05T08:57:11.434Z,4.75
2022-08-05T08:59:41.922Z,4.93
2022-08-05T09:02:16.772Z,4.38
2022-08-05T09:04:58.386Z,4.32
2022-08-05T09:07:39.870Z,4.63
2022-08-05T09:10:20.373Z,6.55
2022-08-05T09:12:50.904Z,5.97
2022-08-05T09:15:20.381Z,4.32
2022-08-05T09:17:49.578Z,4.65
2022-08-05T09:20:21.059Z,5.95
2022-08-05T09:23:19.666Z,6.55
2022-08-05T09:26:06.442Z,4.15
2022-08-05T09:28:37.846Z,5.80
2022-08-05T09:31:43.534Z,5.28
2022-08-05T09:34:01.084Z,4.75
2022-08-05T09:36:55.251Z,4.55
2022-08-05T09:39:39.482Z,4.65
2022-08-05T09:42:23.271Z,4.32
2022-08-05T09:44:56.600Z,7.43
2022-08-05T09:47:48.019Z,4.20
2022-08-05T09:50:17.922Z,3.80
2022-08-05T09:52:59.375Z,6.65
2022-08-05T09:55:58.579Z,4.05
2022-08-05T09:58:15.630Z,4.93
2022-08-05T10:01:13.560Z,4.50
2022-08-05T10:04:02.164Z,4.07
2022-08-05T10:06:31.889Z,7.65
2022-08-05T10:09:25.167Z,3.83
2022-08-05T10:11:56.147Z,4.95
2022-08-05T10:14:32.220Z,5.38
2022-08-05T10:17:36.940Z,4.63
2022-08-05T10:20:09.942Z,4.00
2022-08-05T10:22:43.170Z,5.95
2022-08-05T10:25:19.156Z,6.50
2022-08-05T10:28:13.936Z,3.75
2022-08-05T10:31:20.213Z,6.72
2022-08-05T10:33:29.021Z,3.75
2022-08-05T10:35:59.898Z,5.63
2022-08-05T10:38:33.310Z,4.22
2022-08-05T10:41:13.855Z,4.65
2022-08-05T10:43:54.588Z,5.05
2022-08-05T10:46:24.054Z,4.82
2022-08-05T10:49:01.489Z,4.65
2022-08-05T10:51:48.655Z,4.82
2022-08-05T10:54:56.535Z,7.77
2022-08-05T10:57:31.843Z,5.25
2022-08-05T11:00:28.921Z,4.68
2022-08-05T11:03:24.501Z,4.70
2022-08-05T11:06:15.406Z,5.95
2022-08-05T11:09:16.582Z,4.03
2022-08-05T11:11:53.561Z,5.47
2022-08-05T11:15:11.844Z,6.68
2022-08-05T11:17:59.345Z,6.05
2022-08-05T11:20:48.403Z,7.60
2022-08-05T11:24:05.160Z,8.90
2022-08-05T11:26:32.238Z,5.40
2022-08-05T11:29:13.265Z,5.60
2022-08-05T11:31:58.457Z,4.90
2022-08-05T11:34:39.770Z,7.53
2022-08-05T11:38:29.277Z,6.75
2022-08-05T11:40:00.479Z,7.40
2022-08-05T11:42:40.192Z,9.32
2022-08-05T11:45:23.132Z,8.98
2022-08-05T11:47:55.416Z,7.53
2022-08-05T11:50:23.008Z,7.30
2022-08-05T11:52:55.709Z,8.50
2022-08-05T11:55:32.188Z,6.00
2022-08-05T11:58:09.202Z,7.97
2022-08-05T12:00:39.023Z,6.45
2022-08-05T12:03:28.726Z,9.40
2022-08-05T12:06:01.633Z,5.43
2022-08-05T12:08:31.735Z,7.43
2022-08-05T12:11:04.119Z,5.07
2022-08-05T12:13:48.821Z,9.02
2022-08-05T12:16:19.628Z,6.35
2022-08-05T12:18:52.220Z,4.60
2022-08-05T12:21:24.620Z,7.55
2022-08-05T12:24:06.401Z,6.18
2022-08-05T12:26:38.776Z,6.32
2022-08-05T12:29:15.956Z,6.28
2022-08-05T12:31:56.285Z,5.10
2022-08-05T12:34:28.555Z,6.13
2022-08-05T12:37:00.787Z,7.32
2022-08-05T12:39:34.615Z,8.45
2022-08-05T12:42:18.919Z,8.00
2022-08-05T12:44:47.561Z,8.30
2022-08-05T12:47:26.765Z,8.73
2022-08-05T12:50:04.561Z,6.95
2022-08-05T12:52:41.611Z,8.55
2022-08-05T12:55:25.541Z,7.38
2022-08-05T12:58:49.460Z,7.25
2022-08-05T13:02:02.433Z,6.80
2022-08-05T13:03:41.842Z,6.00
2022-08-05T13:06:17.246Z,8.80
2022-08-05T13:08:51.666Z,6.43
2022-08-05T13:12:01.121Z,6.90
2022-08-05T13:14:25.052Z,8.32
2022-08-05T13:17:07.224Z,8.30
2022-08-05T13:19:51.691Z,6.53
2022-08-05T13:25:00.341Z,9.63
2022-08-05T13:27:39.697Z,7.70
2022-08-05T13:30:35.185Z,9.95
2022-08-05T13:33:01.616Z,6.20
2022-08-05T13:35:43.326Z,7.03
2022-08-05T13:38:28.489Z,7.93
2022-08-05T13:41:01.192Z,6.15
2022-08-05T13:43:43.557Z,7.20
2022-08-05T13:46:13.518Z,6.50
2022-08-05T13:48:58.485Z,7.45
2022-08-05T13:51:36.577Z,7.78
2022-08-05T13:54:12.519Z,6.35
2022-08-05T13:56:45.144Z,6.20
2022-08-05T13:59:19.301Z,8.50
2022-08-05T14:01:58.210Z,7.18
2022-08-05T14:04:51.613Z,7.93
2022-08-05T14:08:00.348Z,6.50
2022-08-05T14:10:28.452Z,7.78
2022-08-05T14:12:57.189Z,7.22
2022-08-05T14:16:05.914Z,7.47
2022-08-05T14:18:14.746Z,5.82
2022-08-05T14:20:47.955Z,6.47
2022-08-05T14:23:23.347Z,5.78
2022-08-05T14:25:58.014Z,3.72
2022-08-05T14:28:29.979Z,6.57
2022-08-05T14:30:58.144Z,6.60
2022-08-05T14:33:25.129Z,4.82
2022-08-05T14:35:54.266Z,4.90
2022-08-05T14:38:32.267Z,6.68
2022-08-05T14:41:06.206Z,4.82
2022-08-05T14:43:57.778Z,3.83
2022-08-05T14:46:28.083Z,3.72
2022-08-05T14:48:58.139Z,3.73
2022-08-05T14:51:26.508Z,5.28
2022-08-05T14:54:26.685Z,3.50
2022-08-05T14:56:46.934Z,4.70
2022-08-05T14:59:15.196Z,3.38
2022-08-05T15:01:48.947Z,5.80
2022-08-05T15:04:20.315Z,3.30
2022-08-05T15:06:49.244Z,4.00
2022-08-05T15:09:51.618Z,4.82
2022-08-05T15:12:26.893Z,4.85
2022-08-05T15:14:54.670Z,3.60
2022-08-05T15:17:47.781Z,4.40
2022-08-05T15:20:18.492Z,5.00
2022-08-05T15:22:46.787Z,3.00
2022-08-05T15:25:23.645Z,3.58
2022-08-05T15:28:08.834Z,4.07
2022-08-05T15:30:41.797Z,5.13
2022-08-05T15:33:10.717Z,6.95
2022-08-05T15:35:44.939Z,3.60
2022-08-05T15:38:33.752Z,4.00
2022-08-05T15:41:23.970Z,4.90
2022-08-05T15:43:47.492Z,4.40
2022-08-05T15:46:14.704Z,2.95
2022-08-05T15:48:51.950Z,4.88
2022-08-05T15:52:12.645Z,3.63
2022-08-05T15:54:16.098Z,3.05
2022-08-05T15:56:43.460Z,5.15
2022-08-05T15:59:22.255Z,3.85
2022-08-05T16:01:52.741Z,4.05
2022-08-05T16:04:25.507Z,3.05
2022-08-05T16:06:55.983Z,3.40
2022-08-05T16:09:25.016Z,5.50
2022-08-05T16:11:54.068Z,3.17
2022-08-05T16:14:22.412Z,3.35
2022-08-05T16:16:49.829Z,4.32
2022-08-05T16:19:25.287Z,5.45
2022-08-05T16:22:04.399Z,4.00
2022-08-05T16:24:41.922Z,4.25
2022-08-05T16:27:19.607Z,3.88
2022-08-05T16:30:08.379Z,5.00
2022-08-05T16:32:50.582Z,3.20
2022-08-05T16:35:17.552Z,4.78
2022-08-05T16:38:03.340Z,3.22
2022-08-05T16:40:32.320Z,4.82
2022-08-05T16:43:00.015Z,3.80
2022-08-05T16:46:04.415Z,4.60
2022-08-05T16:48:25.461Z,3.25
2022-08-05T16:51:00.018Z,4.15
2022-08-05T16:53:32.117Z,3.38
2022-08-05T16:55:59.708Z,2.53
2022-08-05T16:58:26.671Z,3.83
2022-08-05T17:00:53.670Z,4.00
2022-08-05T17:03:21.921Z,4.85
2022-08-05T17:05:54.282Z,4.13
2022-08-05T17:08:35.936Z,3.40
2022-08-05T17:11:16.909Z,4.00
2022-08-05T17:13:45.214Z,4.07
2022-08-05T17:16:33.037Z,5.47
2022-08-05T17:19:00.145Z,3.70
2022-08-05T17:21:35.410Z,4.70
2022-08-05T17:24:19.648Z,4.05
2022-08-05T17:26:56.470Z,3.53
2022-08-05T17:29:33.428Z,3.60
2022-08-05T17:32:06.793Z,4.32
2022-08-05T17:34:35.470Z,3.80
2022-08-05T17:37:02.512Z,4.57
2022-08-05T17:39:34.357Z,3.95
2022-08-05T17:42:18.901Z,5.82
2022-08-05T17:44:50.347Z,4.63
2022-08-05T17:47:22.021Z,5.75
2022-08-05T17:50:00.429Z,3.80
2022-08-05T17:52:35.100Z,3.70
2022-08-05T17:55:21.717Z,5.88
2022-08-05T17:57:50.345Z,5.57
2022-08-05T18:00:18.477Z,4.57
2022-08-05T18:02:47.287Z,4.70
2022-08-05T18:05:16.798Z,6.10
2022-08-05T18:07:44.703Z,7.70
2022-08-05T18:10:20.443Z,3.40
2022-08-05T18:12:49.434Z,5.20
2022-08-05T18:15:16.497Z,4.93
2022-08-05T18:18:00.794Z,6.28
2022-08-05T18:20:31.561Z,5.05
2022-08-05T18:23:00.543Z,3.92
2022-08-05T18:25:35.968Z,5.25
2022-08-05T18:28:05.162Z,3.90
2022-08-05T18:30:33.244Z,5.03
2022-08-05T18:33:01.306Z,4.38
2022-08-05T18:36:00.912Z,4.25
2022-08-05T18:38:19.040Z,4.45
2022-08-05T18:41:58.404Z,4.82
2022-08-05T18:43:43.063Z,6.57
2022-08-05T18:46:20.306Z,5.63
2022-08-05T18:48:52.144Z,4.30
2022-08-05T18:52:06.651Z,5.97
2022-08-05T18:54:31.303Z,3.97
2022-08-05T18:57:00.950Z,4.60
2022-08-05T18:59:42.966Z,5.68
2022-08-05T19:02:28.114Z,4.45
2022-08-05T19:06:13.496Z,4.43
2022-08-05T19:07:53.167Z,4.30
2022-08-05T19:10:28.252Z,4.50
2022-08-05T19:12:56.693Z,5.65
2022-08-05T19:15:57.083Z,7.45
2022-08-05T19:18:13.648Z,5.95
2022-08-05T19:20:53.749Z,6.97
2022-08-05T19:24:03.688Z,7.63
2022-08-05T19:26:09.190Z,6.80
2022-08-05T19:28:42.171Z,7.45
2022-08-05T19:31:13.575Z,4.32
2022-08-05T19:33:48.710Z,4.47
2022-08-05T19:36:25.654Z,5.18
2022-08-05T19:38:55.172Z,5.78
2022-08-05T19:42:05.428Z,6.10
2022-08-05T19:44:14.562Z,5.63
2022-08-05T19:46:43.720Z,4.10
2022-08-05T19:49:12.511Z,6.20
2022-08-05T19:52:04.681Z,5.28
2022-08-05T19:54:32.916Z,4.80
2022-08-05T19:57:06.547Z,6.45
2022-08-05T19:59:54.669Z,5.35
2022-08-05T20:02:26.313Z,4.43
2022-08-05T20:04:55.450Z,5.45
2022-08-05T20:07:45.964Z,5.88
2022-08-05T20:10:14.769Z,5.28
2022-08-05T20:12:46.028Z,5.93
2022-08-05T20:15:48.561Z,4.47
2022-08-05T20:18:10.287Z,6.13
2022-08-05T20:20:51.461Z,6.63
2022-08-05T20:23:22.359Z,6.75
2022-08-05T20:25:49.278Z,4.57
2022-08-05T20:28:19.982Z,6.88
2022-08-05T20:30:47.909Z,4.78
2022-08-05T20:33:16.681Z,5.07
2022-08-05T20:35:45.565Z,4.95
2022-08-05T20:38:20.102Z,9.10
2022-08-05T20:40:53.649Z,5.97
2022-08-05T20:43:57.469Z,6.07
2022-08-05T20:46:10.283Z,5.57
2022-08-05T20:48:45.260Z,5.10
2022-08-05T20:51:17.869Z,4.43
2022-08-05T20:53:56.715Z,6.57
2022-08-05T20:56:28.931Z,6.82
2022-08-05T20:58:59.995Z,6.90
2022-08-05T21:01:39.041Z,5.07
2022-08-05T21:04:10.589Z,3.65
2022-08-05T21:06:45.722Z,4.47
2022-08-05T21:09:16.811Z,4.93
2022-08-05T21:12:09.457Z,3.55
2022-08-05T21:14:32.027Z,3.60
2022-08-05T21:17:05.246Z,3.88
2022-08-05T21:19:47.085Z,5.50
2022-08-05T21:22:23.415Z,4.75
2022-08-05T21:24:52.427Z,5.22
2022-08-05T21:27:25.124Z,6.95
2022-08-05T21:29:57.073Z,7.13
2022-08-05T21:32:26.691Z,5.63
2022-08-05T21:35:08.851Z,5.97
2022-08-05T21:37:47.261Z,6.18
2022-08-05T21:40:21.850Z,6.65
2022-08-05T21:42:49.019Z,6.40
2022-08-05T21:45:24.422Z,4.90
2022-08-05T21:47:56.384Z,3.17
2022-08-05T21:50:26.342Z,7.25
2022-08-05T21:52:53.813Z,3.58
2022-08-05T21:55:42.782Z,5.35
2022-08-05T21:58:13.030Z,7.53
2022-08-05T22:00:40.271Z,7.20
2022-08-05T22:03:09.907Z,3.13
2022-08-05T22:05:48.830Z,4.32
2022-08-05T22:08:22.193Z,3.80
2022-08-05T22:10:51.731Z,3.33
2022-08-05T22:14:19.710Z,5.35
2022-08-05T22:16:26.076Z,4.75
2022-08-05T22:18:54.114Z,5.57
2022-08-05T22:21:25.745Z,5.00
2022-08-05T22:24:13.161Z,4.10
2022-08-05T22:27:17.379Z,4.22
2022-08-05T22:29:44.559Z,4.65
2022-08-05T22:32:12.877Z,6.57
2022-08-05T22:34:45.821Z,4.28
2022-08-05T22:37:12.873Z,5.78
2022-08-05T22:39:39.891Z,8.10
2022-08-05T22:42:12.676Z,8.80
2022-08-05T22:44:53.662Z,6.22
2022-08-05T22:47:29.075Z,7.93
2022-08-05T22:50:20.330Z,6.72
2022-08-05T22:52:44.116Z,8.80
2022-08-05T22:55:18.886Z,10.25
2022-08-05T22:57:52.367Z,6.72
2022-08-05T23:00:21.840Z,6.07
2022-08-05T23:02:49.962Z,6.15
2022-08-05T23:05:18.343Z,6.38
2022-08-05T23:07:49.545Z,6.07
2022-08-05T23:10:20.075Z,6.97
2022-08-05T23:12:51.653Z,4.30
2022-08-05T23:15:26.921Z,4.93
2022-08-05T23:18:00.970Z,4.10
2022-08-05T23:20:33.564Z,5.88
2022-08-05T23:23:05.828Z,6.10
2022-08-05T23:25:52.477Z,5.95
2022-08-05T23:28:23.043Z,4.32
2022-08-05T23:30:53.768Z,4.22
2022-08-05T23:34:03.353Z,4.38
2022-08-05T23:36:10.543Z,8.82
2022-08-05T23:38:38.153Z,7.95
2022-08-05T23:41:05.237Z,4.85
2022-08-05T23:43:37.298Z,4.78
2022-08-05T23:46:21.776Z,8.85
2022-08-05T23:49:00.608Z,6.20
2022-08-05T23:51:52.692Z,9.13
2022-08-05T23:54:36.445Z,5.97
2022-08-05T23:57:06.193Z,5.60
